Time;durP1;ratioP1;P1;durP2;ratioP2;P2;SDS_P1;SDS_P2;PMS_P1;PMS_P2;Temp;Humidity;BMP_temperature;BMP_pressure;BME280_temperature;BME280_humidity;BME280_pressure;Samples;Min_cycle;Max_cycle;Signal;HPM_P1;HPM_P2
2023/04/12 00:00:34;;;;;;;0.20;0.20;;;;;;;;;;5053566;28;20474;-70
2023/04/12 00:03:02;;;;;;;0.20;0.20;;;;;;;;;;5053484;28;20025;-69
2023/04/12 00:05:29;;;;;;;0.20;0.20;;;;;;;;;;5053538;28;20044;-70
2023/04/12 00:07:55;;;;;;;0.20;0.20;;;;;;;;;;5053725;28;20033;-71
2023/04/12 00:10:22;;;;;;;0.25;0.25;;;;;;;;;;5053507;28;20028;-70
2023/04/12 00:12:48;;;;;;;0.20;0.20;;;;;;;;;;5053419;28;20580;-71
2023/04/12 00:15:14;;;;;;;0.45;0.45;;;;;;;;;;5053234;28;20036;-71
2023/04/12 00:17:40;;;;;;;0.20;0.20;;;;;;;;;;5053208;28;20492;-71
2023/04/12 00:20:11;;;;;;;0.20;0.20;;;;;;;;;;5053531;28;20032;-72
2023/04/12 00:22:38;;;;;;;2.88;2.50;;;;;;;;;;5053250;28;20017;-71
2023/04/12 00:25:04;;;;;;;0.20;0.20;;;;;;;;;;5053229;28;20021;-71
2023/04/12 00:27:30;;;;;;;0.20;0.20;;;;;;;;;;5053067;28;20032;-71
2023/04/12 00:29:56;;;;;;;0.20;0.20;;;17.10;99.90;;;;;;5052887;28;20144;-70
2023/04/12 00:32:22;;;;;;;0.60;0.60;;;;;;;;;;5052960;28;20112;-72
2023/04/12 00:34:48;;;;;;;0.15;0.15;;;;;;;;;;5053141;28;20033;-73
2023/04/12 00:37:14;;;;;;;0.20;0.20;;;;;;;;;;5052861;28;20028;-71
2023/04/12 00:39:40;;;;;;;0.20;0.20;;;;;;;;;;5052991;28;20060;-71
2023/04/12 00:42:06;;;;;;;0.20;0.20;;;;;;;;;;5052740;28;20522;-72
2023/04/12 00:44:32;;;;;;;0.20;0.20;;;;;;;;;;5052731;28;20371;-72
2023/04/12 00:47:03;;;;;;;1.15;1.15;;;;;;;;;;5052665;28;20028;-70
2023/04/12 00:49:30;;;;;;;0.20;0.20;;;;;;;;;;5052751;28;20128;-72
2023/04/12 00:52:03;;;;;;;0.20;0.20;;;;;;;;;;5051859;28;20057;-73
2023/04/12 00:54:38;;;;;;;0.20;0.20;;;;;;;;;;5052680;28;20082;-72
2023/04/12 00:57:04;;;;;;;0.35;0.35;;;;;;;;;;5052351;28;20086;-72
2023/04/12 00:59:30;;;;;;;0.30;0.30;;;;;;;;;;5052874;28;20386;-73
2023/04/12 01:01:57;;;;;;;0.20;0.20;;;;;;;;;;5052443;28;20025;-71
2023/04/12 01:04:25;;;;;;;0.10;0.10;;;;;;;;;;5052441;28;20021;-72
2023/04/12 01:07:14;;;;;;;6.15;0.50;;;;;;;;;;5052265;28;20029;-71
2023/04/12 01:09:46;;;;;;;2.17;0.70;;;;;;;;;;5052187;28;20386;-71
2023/04/12 01:12:12;;;;;;;;;;;;;;;;;;5052763;28;20051;-71
2023/04/12 01:15:04;;;;;;;1.92;1.77;;;;;;;;;;5052354;28;19905;-74
2023/04/12 01:17:30;;;;;;;;;;;;;;;;;;5052219;28;20040;-72
2023/04/12 01:20:00;;;;;;;0.20;0.20;;;;;;;;;;5052111;28;19913;-73
2023/04/12 01:22:54;;;;;;;2.15;1.95;;;;;;;;;;5052492;28;20020;-72
2023/04/12 01:25:38;;;;;;;4.70;0.93;;;;;;;;;;5051947;28;20021;-73
2023/04/12 01:28:05;;;;;;;0.20;0.20;;;;;;;;;;5051609;28;20033;-73
2023/04/12 01:30:32;;;;;;;0.55;0.55;;;;;;;;;;5051978;28;20021;-73
2023/04/12 01:33:00;;;;;;;0.20;0.20;;;;;;;;;;5051887;28;20143;-72
2023/04/12 01:35:28;;;;;;;0.17;0.17;;;;;;;;;;5052009;28;20090;-73
2023/04/12 01:37:54;;;;;;;0.70;0.70;;;;;;;;;;5051967;28;20028;-72
2023/04/12 01:40:20;;;;;;;0.35;0.35;;;;;;;;;;5051777;28;20036;-73
2023/04/12 01:42:46;;;;;;;0.30;0.30;;;;;;;;;;5051967;28;20029;-74
2023/04/12 01:45:12;;;;;;;3.35;1.48;;;;;;;;;;5051574;28;20027;-77
2023/04/12 01:47:39;;;;;;;0.20;0.20;;;;;;;;;;5051927;28;20025;-74
2023/04/12 01:50:08;;;;;;;0.20;0.20;;;;;;;;;;5051457;28;20025;-73
2023/04/12 01:52:36;;;;;;;0.20;0.20;;;;;;;;;;5051773;28;20064;-74
2023/04/12 01:55:04;;;;;;;0.47;0.43;;;;;;;;;;5051461;28;20029;-74
2023/04/12 01:57:31;;;;;;;0.32;0.32;;;;;;;;;;5051403;28;20350;-74
2023/04/12 01:59:58;;;;;;;0.20;0.20;;;;;;;;;;5051142;28;20389;-74
2023/04/12 02:02:24;;;;;;;0.20;0.20;;;;;;;;;;5051202;28;20612;-74
2023/04/12 02:04:50;;;;;;;0.57;0.57;;;;;;;;;;5049789;28;20488;-74
2023/04/12 02:07:19;;;;;;;0.63;0.63;;;;;;;;;;5051350;28;20079;-74
2023/04/12 02:09:45;;;;;;;0.20;0.20;;;;;;;;;;5051198;28;20025;-75
2023/04/12 02:12:12;;;;;;;0.10;0.10;;;;;;;;;;5051131;28;20025;-74
2023/04/12 02:14:38;;;;;;;0.20;0.20;;;;;;;;;;5051273;28;20519;-75
2023/04/12 02:17:04;;;;;;;12.68;1.98;;;;;;;;;;5051454;28;20044;-75
2023/04/12 02:19:31;;;;;;;0.30;0.30;;;;;;;;;;5051045;28;20071;-76
2023/04/12 02:21:57;;;;;;;8.35;1.30;;;;;;;;;;5051128;28;20109;-76
2023/04/12 02:24:23;;;;;;;0.52;0.40;;;;;;;;;;5051202;28;20087;-74
2023/04/12 02:26:49;;;;;;;0.20;0.20;;;;;;;;;;5050946;28;20033;-75
2023/04/12 02:29:15;;;;;;;0.30;0.30;;;;;;;;;;5049672;28;20041;-75
2023/04/12 02:31:41;;;;;;;0.20;0.20;;;;;;;;;;5050985;28;20025;-75
2023/04/12 02:34:07;;;;;;;0.10;0.10;;;;;;;;;;5051091;28;20022;-76
2023/04/12 02:36:36;;;;;;;0.20;0.20;;;;;;;;;;5051321;28;20146;-75
2023/04/12 02:39:02;;;;;;;0.20;0.20;;;;;;;;;;5050906;28;20037;-76
2023/04/12 02:41:29;;;;;;;1.10;1.10;;;;;;;;;;5050827;28;20033;-77
2023/04/12 02:43:55;;;;;;;0.20;0.20;;;;;;;;;;5050768;28;20029;-76
2023/04/12 02:46:26;;;;;;;29.92;2.28;;;;;;;;;;5050918;28;20147;-76
2023/04/12 02:48:52;;;;;;;0.20;0.20;;;;;;;;;;5050834;28;20202;-75
2023/04/12 02:51:18;;;;;;;0.20;0.20;;;;;;;;;;5050896;28;20092;-76
2023/04/12 02:53:44;;;;;;;0.20;0.20;;;;;;;;;;5050785;28;20025;-75
2023/04/12 02:56:10;;;;;;;0.57;0.57;;;;;;;;;;5050779;28;20389;-75
2023/04/12 02:58:37;;;;;;;0.20;0.20;;;;;;;;;;5050740;28;20125;-76
2023/04/12 03:01:06;;;;;;;0.20;0.20;;;;;;;;;;5051047;28;20040;-76
2023/04/12 03:03:32;;;;;;;0.20;0.20;;;;;;;;;;5050833;28;20124;-76
2023/04/12 03:05:58;;;;;;;0.20;0.20;;;;;;;;;;5050707;28;20036;-75
2023/04/12 03:08:25;;;;;;;0.32;0.32;;;;;;;;;;5050580;28;20032;-77
2023/04/12 03:10:51;;;;;;;0.28;0.28;;;;;;;;;;5050363;28;20385;-75
2023/04/12 03:13:17;;;;;;;0.20;0.20;;;;;;;;;;5050781;28;20052;-75
2023/04/12 03:15:43;;;;;;;0.20;0.20;;;9.90;99.90;;;;;;5052593;28;20025;-76
2023/04/12 03:18:09;;;;;;;0.20;0.20;;;;;;;;;;5054122;28;20040;-75
2023/04/12 03:20:42;;;;;;;1.38;1.35;;;;;;;;;;5054411;28;20034;-76
2023/04/12 03:23:08;;;;;;;0.22;0.22;;;9.60;99.90;;;;;;5054372;28;20013;-75
2023/04/12 03:25:35;;;;;;;1.75;1.38;;;9.70;99.90;;;;;;5054227;28;20363;-75
2023/04/12 03:28:01;;;;;;;0.70;0.70;;;9.70;99.90;;;;;;5054163;28;20041;-74
2023/04/12 03:30:27;;;;;;;14.80;4.22;;;9.60;99.90;;;;;;5054650;28;20047;-77
2023/04/12 03:32:53;;;;;;;0.20;0.20;;;9.50;99.90;;;;;;5054189;28;20480;-73
2023/04/12 03:35:19;;;;;;;0.20;0.20;;;9.50;99.90;;;;;;5054140;28;20039;-71
2023/04/12 03:37:45;;;;;;;0.20;0.20;;;9.50;99.90;;;;;;5054446;28;20024;-72
2023/04/12 03:40:11;;;;;;;0.20;0.20;;;;;;;;;;5053899;28;20037;-71
2023/04/12 03:42:37;;;;;;;0.20;0.20;;;;;;;;;;5054078;28;20025;-72
2023/04/12 03:45:03;;;;;;;0.20;0.20;;;;;;;;;;5054370;28;20029;-71
2023/04/12 03:47:29;;;;;;;2.55;1.77;;;9.30;99.90;;;;;;5053942;28;20032;-71
2023/04/12 03:49:56;;;;;;;0.30;0.30;;;;;;;;;;5054009;28;20025;-71
2023/04/12 03:52:23;;;;;;;0.57;0.57;;;;;;;;;;5052348;28;20029;-72
2023/04/12 03:54:48;;;;;;;0.20;0.20;;;9.20;99.90;;;;;;5053635;28;20025;-72
2023/04/12 03:57:15;;;;;;;0.20;0.20;;;;;;;;;;5053621;28;20473;-71
2023/04/12 03:59:40;;;;;;;0.30;0.30;;;9.20;99.90;;;;;;5053667;28;20025;-71
2023/04/12 04:02:06;;;;;;;0.25;0.25;;;9.30;99.90;;;;;;5053748;28;20024;-70
2023/04/12 04:04:32;;;;;;;0.30;0.30;;;9.30;99.90;;;;;;5052311;28;20025;-71
2023/04/12 04:06:58;;;;;;;0.20;0.20;;;9.30;99.90;;;;;;5053576;28;20100;-71
2023/04/12 04:09:23;;;;;;;0.20;0.20;;;9.40;99.90;;;;;;5053383;28;20159;-71
2023/04/12 04:11:50;;;;;;;0.30;0.30;;;;;;;;;;5053440;28;20043;-72
2023/04/12 04:14:16;;;;;;;0.20;0.20;;;9.40;99.90;;;;;;5053340;28;20095;-72
2023/04/12 04:16:41;;;;;;;0.20;0.20;;;9.30;99.90;;;;;;5053393;28;20477;-72
2023/04/12 04:19:07;;;;;;;0.20;0.20;;;9.30;99.90;;;;;;5053351;28;20037;-72
2023/04/12 04:21:33;;;;;;;0.20;0.20;;;9.30;99.90;;;;;;5053091;28;20025;-70
2023/04/12 04:24:02;;;;;;;0.35;0.35;;;9.20;99.90;;;;;;5053532;28;20033;-72
2023/04/12 04:26:37;;;;;;;0.15;0.15;;;9.20;99.90;;;;;;5051904;28;20033;-72
2023/04/12 04:29:04;;;;;;;0.20;0.20;;;9.20;99.90;;;;;;5052736;28;20086;-72
2023/04/12 04:31:33;;;;;;;0.20;0.20;;;9.20;99.90;;;;;;5053164;28;20021;-72
2023/04/12 04:34:02;;;;;;;0.20;0.20;;;9.10;99.90;;;;;;5052900;28;20025;-72
2023/04/12 04:36:28;;;;;;;0.20;0.20;;;9.10;99.90;;;;;;5053070;28;20474;-72
2023/04/12 04:38:56;;;;;;;1.75;1.65;;;9.00;99.90;;;;;;5051627;28;20068;-72
2023/04/12 04:41:23;;;;;;;0.30;0.30;;;9.00;99.90;;;;;;5052982;28;20452;-73
2023/04/12 04:43:49;;;;;;;0.20;0.20;;;9.10;99.90;;;;;;5052889;28;20467;-72
2023/04/12 04:46:16;;;;;;;0.63;0.63;;;9.10;99.90;;;;;;5052835;28;20032;-73
2023/04/12 04:48:42;;;;;;;0.30;0.30;;;9.00;99.90;;;;;;5053131;28;20029;-72
2023/04/12 04:51:08;;;;;;;0.20;0.20;;;9.10;75.90;;;;;;5052853;28;20020;-73
2023/04/12 04:53:33;;;;;;;0.20;0.20;;;9.20;1.00;;;;;;5051416;28;20029;-73
2023/04/12 04:56:00;;;;;;;0.20;0.20;;;9.30;99.90;;;;;;5052788;28;20021;-72
2023/04/12 04:58:26;;;;;;;0.20;0.20;;;9.20;99.90;;;;;;5052521;28;20033;-73
2023/04/12 05:00:56;;;;;;;0.35;0.35;;;9.30;99.90;;;;;;5052551;28;20044;-72
2023/04/12 05:03:21;;;;;;;0.20;0.20;;;9.30;99.90;;;;;;5052448;28;20058;-73
2023/04/12 05:05:48;;;;;;;0.20;0.20;;;9.40;99.90;;;;;;5052605;28;20040;-73
2023/04/12 05:08:14;;;;;;;0.30;0.30;;;9.40;99.90;;;;;;5052275;28;20118;-73
2023/04/12 05:10:41;;;;;;;0.85;0.85;;;9.40;99.90;;;;;;5052523;28;20067;-72
2023/04/12 05:13:08;;;;;;;0.30;0.30;;;9.40;99.90;;;;;;5052316;28;20036;-72
2023/04/12 05:15:34;;;;;;;0.20;0.20;;;9.30;99.90;;;;;;5050824;28;20052;-73
2023/04/12 05:18:00;;;;;;;0.20;0.20;;;9.30;99.90;;;;;;5052259;28;20025;-73
2023/04/12 05:20:26;;;;;;;0.20;0.20;;;9.30;99.90;;;;;;5052187;28;20493;-72
2023/04/12 05:22:52;;;;;;;0.30;0.30;;;9.30;99.90;;;;;;5052086;28;20052;-74
2023/04/12 05:25:19;;;;;;;0.20;0.20;;;9.30;99.90;;;;;;5052072;28;20027;-73
2023/04/12 05:27:46;;;;;;;0.30;0.30;;;9.30;99.90;;;;;;5051543;28;20021;-72
2023/04/12 05:30:12;;;;;;;0.30;0.30;;;9.50;99.90;;;;;;5051941;28;20025;-73
2023/04/12 05:32:37;;;;;;;0.20;0.20;;;9.50;99.90;;;;;;5052007;28;20056;-74
2023/04/12 05:35:03;;;;;;;0.20;0.20;;;9.50;99.90;;;;;;5050659;28;20025;-73
2023/04/12 05:37:29;;;;;;;0.30;0.30;;;9.50;99.90;;;;;;5051752;28;20025;-73
2023/04/12 05:39:55;;;;;;;0.20;0.20;;;9.70;99.90;;;;;;5051700;28;20106;-73
2023/04/12 05:42:21;;;;;;;0.20;0.20;;;9.80;99.90;;;;;;5050460;28;20478;-75
2023/04/12 05:44:48;;;;;;;0.20;0.20;;;9.80;99.90;;;;;;5051739;28;20031;-74
2023/04/12 05:47:14;;;;;;;0.30;0.30;;;9.80;99.90;;;;;;5051671;28;20470;-74
2023/04/12 05:49:40;;;;;;;0.20;0.20;;;9.90;99.90;;;;;;5051626;28;20067;-73
2023/04/12 05:52:06;;;;;;;2.22;1.85;;;10.00;99.90;;;;;;5050348;28;20044;-73
2023/04/12 05:54:31;;;;;;;0.30;0.30;;;10.00;99.90;;;;;;5052119;28;20032;-74
2023/04/12 05:56:57;;;;;;;0.35;0.35;;;10.00;99.90;;;;;;5051416;28;20077;-73
2023/04/12 05:59:23;;;;;;;0.30;0.30;;;10.10;99.90;;;;;;5051205;28;20040;-74
2023/04/12 06:01:48;;;;;;;0.30;0.30;;;10.20;99.90;;;;;;5051350;28;20254;-73
2023/04/12 06:04:14;;;;;;;0.30;0.30;;;10.30;99.90;;;;;;5051407;28;20024;-73
2023/04/12 06:06:40;;;;;;;0.20;0.20;;;10.40;99.90;;;;;;5049876;28;20025;-73
2023/04/12 06:09:06;;;;;;;0.20;0.20;;;10.50;99.90;;;;;;5051467;28;20108;-73
2023/04/12 06:11:34;;;;;;;0.20;0.20;;;10.50;99.90;;;;;;5051226;28;20021;-73
2023/04/12 06:14:00;;;;;;;0.20;0.20;;;10.50;99.90;;;;;;5051310;28;20036;-73
2023/04/12 06:16:26;;;;;;;0.28;0.28;;;10.40;99.90;;;;;;5051272;28;20021;-73
2023/04/12 06:18:52;;;;;;;0.95;0.95;;;10.20;99.90;;;;;;5051207;28;20029;-73
2023/04/12 06:21:19;;;;;;;0.20;0.20;;;10.00;99.90;;;;;;5051190;28;20033;-74
2023/04/12 06:23:44;;;;;;;0.20;0.20;;;9.90;99.90;;;;;;5051728;28;20021;-73
2023/04/12 06:26:10;;;;;;;0.22;0.22;;;9.80;99.90;;;;;;5051132;28;20028;-73
2023/04/12 06:28:36;;;;;;;2.70;2.53;;;9.80;99.90;;;;;;5050806;28;20041;-73
2023/04/12 06:31:02;;;;;;;6.55;1.50;;;9.80;99.90;;;;;;5050155;28;20484;-73
2023/04/12 06:33:28;;;;;;;0.20;0.20;;;9.80;99.90;;;;;;5051146;28;20036;-74
2023/04/12 06:35:54;;;;;;;0.20;0.20;;;9.80;99.90;;;;;;5051007;28;20033;-74
2023/04/12 06:38:20;;;;;;;0.20;0.20;;;9.80;99.90;;;;;;5050682;28;20454;-73
2023/04/12 06:40:46;;;;;;;0.47;0.47;;;9.90;99.90;;;;;;5051028;28;20033;-73
2023/04/12 06:43:12;;;;;;;0.30;0.30;;;10.00;99.90;;;;;;5050847;28;20095;-74
2023/04/12 06:45:37;;;;;;;0.20;0.20;;;10.00;99.90;;;;;;5051225;28;20499;-73
2023/04/12 06:48:03;;;;;;;0.30;0.30;;;10.10;99.90;;;;;;5050759;28;20513;-73
2023/04/12 06:50:29;;;;;;;0.28;0.28;;;10.10;99.90;;;;;;5052383;28;20033;-74
2023/04/12 06:52:54;;;;;;;0.20;0.20;;;10.20;99.90;;;;;;5055020;28;20040;-73
2023/04/12 06:55:20;;;;;;;0.20;0.20;;;;;;;;;;5054892;28;20462;-73
2023/04/12 06:57:47;;;;;;;0.20;0.20;;;;;;;;;;5054723;28;20052;-73
2023/04/12 07:00:14;;;;;;;0.20;0.20;;;;;;;;;;5054784;28;20037;-74
2023/04/12 07:02:40;;;;;;;0.30;0.30;;;;;;;;;;5054834;28;20036;-74
2023/04/12 07:05:06;;;;;;;11.77;2.40;;;;;;;;;;5054692;28;20032;-74
2023/04/12 07:07:32;;;;;;;0.77;0.77;;;;;;;;;;5054713;28;20021;-73
2023/04/12 07:09:59;;;;;;;0.17;0.17;;;;;;;;;;5054343;28;20029;-72
2023/04/12 07:12:25;;;;;;;1.33;1.33;;;;;;;;;;5053108;28;20027;-73
2023/04/12 07:14:51;;;;;;;0.20;0.20;;;;;;;;;;5054415;28;20040;-72
2023/04/12 07:17:17;;;;;;;0.20;0.20;;;;;;;;;;5054522;28;20080;-74
2023/04/12 07:19:43;;;;;;;0.82;0.82;;;;;;;;;;5054403;28;20033;-73
2023/04/12 07:22:09;;;;;;;0.17;0.17;;;;;;;;;;5054179;28;20200;-72
2023/04/12 07:24:35;;;;;;;0.20;0.20;;;;;;;;;;5054375;28;20025;-70
2023/04/12 07:27:02;;;;;;;0.20;0.20;;;;;;;;;;5054153;28;20453;-68
2023/04/12 07:29:28;;;;;;;0.20;0.20;;;;;;;;;;5054035;28;20080;-63
2023/04/12 07:31:54;;;;;;;0.20;0.20;;;;;;;;;;5054512;28;20112;-76
2023/04/12 07:34:21;;;;;;;0.30;0.30;;;;;;;;;;5054584;28;20142;-73
2023/04/12 07:36:47;;;;;;;0.20;0.20;;;;;;;;;;5054258;28;20013;-73
2023/04/12 07:39:13;;;;;;;0.20;0.20;;;;;;;;;;5054011;28;20094;-73
2023/04/12 07:41:41;;;;;;;0.20;0.20;;;;;;;;;;5054244;28;20085;-72
2023/04/12 07:47:14;;;;;;;1.63;1.58;;;;;;;;;;5129640;27;20891;-76
2023/04/12 07:49:40;;;;;;;0.30;0.30;;;;;;;;;;5129523;28;20049;-74
2023/04/12 07:52:06;;;;;;;0.22;0.22;;;;;;;;;;5129581;28;20510;-73
2023/04/12 07:54:33;;;;;;;0.28;0.28;;;;;;;;;;5129786;28;20027;-71
2023/04/12 07:57:00;;;;;;;0.20;0.20;;;;;;;;;;5129279;28;20114;-68
2023/04/12 07:59:26;;;;;;;0.30;0.30;;;;;;;;;;5129415;28;20019;-64
2023/04/12 08:01:52;;;;;;;0.20;0.20;;;;;;;;;;5129466;28;20032;-64
2023/04/12 08:04:18;;;;;;;0.20;0.20;;;;;;;;;;5129492;28;20022;-63
2023/04/12 08:06:44;;;;;;;0.20;0.20;;;;;;;;;;5129020;28;20111;-64
2023/04/12 08:09:10;;;;;;;0.22;0.22;;;;;;;;;;5129180;28;20499;-64
2023/04/12 08:11:36;;;;;;;0.20;0.20;;;;;;;;;;5128889;28;20126;-65
2023/04/12 08:14:02;;;;;;;0.20;0.20;;;;;;;;;;5129204;28;20062;-64
2023/04/12 08:16:28;;;;;;;1.98;1.88;;;;;;;;;;5128893;28;20063;-64
2023/04/12 08:18:54;;;;;;;0.40;0.40;;;;;;;;;;5128952;28;20042;-66
2023/04/12 08:21:21;;;;;;;0.20;0.20;;;;;;;;;;5129081;28;20019;-65
2023/04/12 08:23:49;;;;;;;0.50;0.50;;;;;;;;;;5128785;27;20023;-65
2023/04/12 08:26:15;;;;;;;0.20;0.20;;;;;;;;;;5128900;27;20028;-65
2023/04/12 08:28:41;;;;;;;0.20;0.20;;;;;;;;;;5128734;28;20022;-66
2023/04/12 08:31:07;;;;;;;0.20;0.20;;;;;;;;;;5128833;28;20077;-67
2023/04/12 08:33:34;;;;;;;0.22;0.22;;;;;;;;;;5127294;28;20034;-67
2023/04/12 08:36:00;;;;;;;51.13;1.95;;;;;;;;;;5128334;28;20032;-68
2023/04/12 08:38:26;;;;;;;0.30;0.30;;;;;;;;;;5128424;27;20039;-68
2023/04/12 08:40:52;;;;;;;0.20;0.20;;;;;;;;;;5128963;28;20030;-69
2023/04/12 08:43:19;;;;;;;0.20;0.20;;;;;;;;;;5128565;28;20101;-67
2023/04/12 08:45:45;;;;;;;0.20;0.20;;;;;;;;;;5128175;28;20043;-69
2023/04/12 08:48:12;;;;;;;0.20;0.20;;;;;;;;;;5128548;28;20029;-69
2023/04/12 08:50:38;;;;;;;0.20;0.20;;;;;;;;;;5128404;28;20031;-69
2023/04/12 08:53:04;;;;;;;0.20;0.20;;;;;;;;;;5128530;28;20030;-69
2023/04/12 08:55:30;;;;;;;0.20;0.20;;;;;;;;;;5128423;28;20027;-69
2023/04/12 08:57:57;;;;;;;0.20;0.20;;;;;;;;;;5118323;28;20047;-63
2023/04/12 09:00:24;;;;;;;0.22;0.22;;;;;;;;;;5113627;28;19911;-65
2023/04/12 09:02:50;;;;;;;0.20;0.20;;;;;;;;;;5114132;28;20031;-67
2023/04/12 09:05:17;;;;;;;0.20;0.20;;;;;;;;;;5112923;28;20180;-66
2023/04/12 09:07:43;;;;;;;0.20;0.20;;;;;;;;;;5114344;28;20015;-67
2023/04/12 09:10:09;;;;;;;0.30;0.30;;;;;;;;;;5114396;28;20016;-68
2023/04/12 09:12:44;;;;;;;0.20;0.20;;;;;;;;;;5114347;28;20484;-69
2023/04/12 09:15:12;;;;;;;0.60;0.45;;;;;;;;;;5114030;28;20514;-69
2023/04/12 09:17:39;;;;;;;0.30;0.30;;;;;;;;;;5114338;28;20099;-69
2023/04/12 09:20:24;;;;;;;0.47;0.47;;;;;;;;;;5114327;28;20372;-69
2023/04/12 09:22:51;;;;;;;0.30;0.30;;;;;;;;;;5114201;28;20384;-69
2023/04/12 09:25:17;;;;;;;0.20;0.20;;;;;;;;;;5114213;28;20029;-70
2023/04/12 09:27:50;;;;;;;0.30;0.30;;;;;;;;;;5113782;28;20058;-69
2023/04/12 09:30:17;;;;;;;0.20;0.20;;;;;;;;;;5113878;28;20024;-69
2023/04/12 09:32:44;;;;;;;0.20;0.20;;;;;;;;;;5113944;28;20051;-70
2023/04/12 09:35:10;;;;;;;0.20;0.20;;;;;;;;;;5113922;28;20379;-70
2023/04/12 09:37:36;;;;;;;0.20;0.20;;;;;;;;;;5112512;28;20254;-73
2023/04/12 09:40:06;;;;;;;5.30;1.95;;;;;;;;;;5113670;28;20477;-72
2023/04/12 09:42:33;;;;;;;0.30;0.30;;;;;;;;;;5113790;28;20391;-72
2023/04/12 09:45:00;;;;;;;0.20;0.20;;;;;;;;;;5113588;28;20028;-71
2023/04/12 09:47:39;;;;;;;1.40;1.30;;;;;;;;;;5113812;28;20027;-71
2023/04/12 09:50:06;;;;;;;4.78;1.20;;;;;;;;;;5113537;28;20027;-72
2023/04/12 09:52:37;;;;;;;0.40;0.40;;;;;;;;;;5113739;28;20016;-76
2023/04/12 09:55:08;;;;;;;0.20;0.20;;;;;;;;;;5113531;28;20019;-74
2023/04/12 09:57:35;;;;;;;0.10;0.10;;;;;;;;;;5112224;28;20069;-74
2023/04/12 10:00:03;;;;;;;0.10;0.10;;;;;;;;;;5113416;28;20248;-77
2023/04/12 10:02:29;;;;;;;9.43;1.40;;;;;;;;;;5113303;28;20145;-76
2023/04/12 10:04:55;;;;;;;0.20;0.20;;;;;;;;;;5113542;28;20032;-75
2023/04/12 10:07:21;;;;;;;0.13;0.13;;;;;;;;;;5113249;28;20020;-64
2023/04/12 10:09:48;;;;;;;0.20;0.20;;;;;;;;;;5112435;28;20076;-65
2023/04/12 10:12:14;;;;;;;0.40;0.40;;;;;;;;;;5113284;27;20072;-66
2023/04/12 10:14:41;;;;;;;0.40;0.40;;;;;;;;;;5112996;28;20028;-67
2023/04/12 10:17:08;;;;;;;0.22;0.22;;;;;;;;;;5112945;28;20071;-66
2023/04/12 10:19:34;;;;;;;0.20;0.20;;;;;;;;;;5113090;28;20103;-68
2023/04/12 10:22:00;;;;;;;0.20;0.20;;;;;;;;;;5112826;28;20023;-68
2023/04/12 10:24:27;;;;;;;0.20;0.20;;;;;;;;;;5113168;28;20020;-70
2023/04/12 10:26:57;;;;;;;0.20;0.20;;;;;;;;;;5112751;28;20074;-71
2023/04/12 10:29:31;;;;;;;0.20;0.20;;;;;;;;;;5113227;28;20020;-73
2023/04/12 10:31:58;;;;;;;0.60;0.60;;;;;;;;;;5112658;28;20023;-72
2023/04/12 10:34:28;;;;;;;0.30;0.30;;;;;;;;;;5112757;28;20023;-72
2023/04/12 10:37:01;;;;;;;0.35;0.35;;;;;;;;;;5112751;28;20119;-76
2023/04/12 10:39:36;;;;;;;0.20;0.20;;;;;;;;;;5112425;28;20055;-73
2023/04/12 10:42:17;;;;;;;0.20;0.20;;;;;;;;;;5112546;28;20168;-74
2023/04/12 10:44:43;;;;;;;0.20;0.20;;;;;;;;;;5112643;28;20050;-74
2023/04/12 10:47:10;;;;;;;0.20;0.20;;;;;;;;;;5112140;28;20134;-74
2023/04/12 10:49:36;;;;;;;0.73;0.52;;;;;;;;;;5112642;28;20030;-76
2023/04/12 10:52:09;;;;;;;0.22;0.22;;;;;;;;;;5112687;28;20106;-73
2023/04/12 10:54:36;;;;;;;0.20;0.20;;;;;;;;;;5112558;27;20020;-75
2023/04/12 10:57:05;;;;;;;1.98;1.80;;;;;;;;;;5112431;28;20031;-74
2023/04/12 10:59:50;;;;;;;0.30;0.30;;;;;;;;;;5112386;28;20023;-74
2023/04/12 11:02:16;;;;;;;0.22;0.22;;;;;;;;;;5112406;28;20024;-73
2023/04/12 11:05:01;;;;;;;0.30;0.30;;;;;;;;;;5112384;28;20072;-75
2023/04/12 11:07:39;;;;;;;0.20;0.20;;;;;;;;;;5112321;28;20027;-75
2023/04/12 11:10:12;;;;;;;0.20;0.20;;;;;;;;;;5112186;28;20026;-75
2023/04/12 11:12:38;;;;;;;1.40;1.30;;;;;;;;;;5112140;28;20023;-75
2023/04/12 11:15:05;;;;;;;0.20;0.20;;;;;;;;;;5110645;28;20451;-75
2023/04/12 11:17:31;;;;;;;0.20;0.20;;;;;;;;;;5110925;28;20141;-76
2023/04/12 11:19:59;;;;;;;0.20;0.20;;;;;;;;;;5110240;28;20452;-74
2023/04/12 11:22:26;;;;;;;0.20;0.20;;;;;;;;;;5111978;28;20043;-73
2023/04/12 11:24:54;;;;;;;0.22;0.22;;;;;;;;;;5111819;28;20020;-72
2023/04/12 11:27:21;;;;;;;0.20;0.20;;;;;;;;;;5111630;28;20020;-72
2023/04/12 11:29:54;;;;;;;0.20;0.20;;;;;;;;;;5111937;28;20341;-72
2023/04/12 11:32:22;;;;;;;0.47;0.47;;;;;;;;;;5111943;28;20059;-72
2023/04/12 11:34:48;;;;;;;0.55;0.55;;;;;;;;;;5111804;28;20043;-73
2023/04/12 11:37:14;;;;;;;0.35;0.35;;;;;;;;;;5111817;28;20042;-76
2023/04/12 11:39:45;;;;;;;5.47;2.38;;;;;;;;;;5111881;28;20062;-71
2023/04/12 11:42:18;;;;;;;0.10;0.10;;;;;;;;;;5111759;28;20035;-72
2023/04/12 11:44:44;;;;;;;0.20;0.20;;;;;;;;;;5111479;28;20058;-73
2023/04/12 11:47:16;;;;;;;0.20;0.20;;;;;;;;;;5111254;28;20051;-72
2023/04/12 11:49:43;;;;;;;9.10;1.50;;;;;;;;;;5112040;28;20438;-73
2023/04/12 11:52:09;;;;;;;13.90;0.50;;;;;;;;;;5111388;28;20507;-72
2023/04/12 11:54:35;;;;;;;0.60;0.40;;;;;;;;;;5111617;28;20391;-72
2023/04/12 11:57:01;;;;;;;0.10;0.10;;;;;;;;;;5111189;28;20032;-73
2023/04/12 11:59:34;;;;;;;1.80;0.93;;;;;;;;;;5111573;28;20031;-72
2023/04/12 12:02:01;;;;;;;0.20;0.20;;;;;;;;;;5111742;28;20028;-72
2023/04/12 12:04:31;;;;;;;0.20;0.20;;;;;;;;;;5111741;28;20020;-72
2023/04/12 12:06:57;;;;;;;2.70;1.17;;;;;;;;;;5111408;28;20529;-73
2023/04/12 12:09:25;;;;;;;5.68;2.70;;;;;;;;;;5111325;28;20028;-72
2023/04/12 12:11:51;;;;;;;0.20;0.20;;;;;;;;;;5111497;28;20028;-73
2023/04/12 12:14:20;;;;;;;0.20;0.20;;;;;;;;;;5111438;28;20031;-75
2023/04/12 12:16:53;;;;;;;0.85;0.82;;;;;;;;;;5111308;28;20039;-74
2023/04/12 12:19:30;;;;;;;0.10;0.10;;;;;;;;;;5111270;28;20418;-75
2023/04/12 12:22:25;;;;;;;3.22;2.85;;;;;;;;;;5109998;28;20051;-73
2023/04/12 12:24:52;;;;;;;0.68;0.68;;;;;;;;;;5097052;28;20024;-73
2023/04/12 12:27:19;;;;;;;0.20;0.20;;;;;;;;;;5111352;28;20016;-75
2023/04/12 12:29:48;;;;;;;1.55;0.95;;;;;;;;;;5111231;28;20023;-71
2023/04/12 12:32:17;;;;;;;0.20;0.20;;;;;;;;;;5112151;28;20068;-71
2023/04/12 12:34:56;;;;;;;0.10;0.10;;;;;;;;;;5115021;28;20050;-72
2023/04/12 12:37:25;;;;;;;0.20;0.20;;;;;;;;;;5114775;28;20028;-70
2023/04/12 12:40:10;;;;;;;0.20;0.20;;;;;;;;;;5115016;28;20024;-71
2023/04/12 12:42:36;;;;;;;0.52;0.52;;;;;;;;;;5114987;28;20030;-72
2023/04/12 12:45:03;;;;;;;0.73;0.73;;;;;;;;;;5114756;28;20020;-70
2023/04/12 12:47:30;;;;;;;0.20;0.20;;;;;;;;;;5114855;28;20488;-71
2023/04/12 12:49:56;;;;;;;0.20;0.20;;;;;;;;;;5114663;28;20051;-71
2023/04/12 12:52:23;;;;;;;0.40;0.40;;;;;;;;;;5114710;28;20019;-73
2023/04/12 12:54:49;;;;;;;24.63;3.97;;;;;;;;;;5114458;28;20024;-71
2023/04/12 12:57:15;;;;;;;21.20;4.93;;;;;;;;;;5114659;28;20081;-71
2023/04/12 12:59:41;;;;;;;25.08;2.88;;;;;;;;;;5114732;28;20510;-71
2023/04/12 13:02:07;;;;;;;19.52;5.00;;;;;;;;;;5114315;28;20031;-71
2023/04/12 13:04:33;;;;;;;14.40;3.00;;;;;;;;;;5114857;28;20016;-73
2023/04/12 13:06:59;;;;;;;26.80;3.35;;;;;;;;;;5114421;28;20468;-71
2023/04/12 13:09:25;;;;;;;17.38;2.97;;;;;;;;;;5114293;28;20051;-72
2023/04/12 13:11:51;;;;;;;14.65;3.03;;;;;;;;;;5114250;28;20031;-73
2023/04/12 13:14:17;;;;;;;27.67;4.00;;;;;;;;;;5114336;28;20031;-72
2023/04/12 13:16:44;;;;;;;17.40;3.22;;;;;;;;;;5114082;28;20181;-71
2023/04/12 13:19:10;;;;;;;20.48;4.45;;;;;;;;;;5114113;28;20019;-74
2023/04/12 13:21:36;;;;;;;10.52;2.78;;;;;;;;;;5114148;28;20087;-72
2023/04/12 13:24:03;;;;;;;13.77;2.83;;;;;;;;;;5114388;28;20047;-71
2023/04/12 13:26:30;;;;;;;16.25;3.33;;;;;;;;;;5114179;28;20070;-74
2023/04/12 13:28:56;;;;;;;27.88;3.33;;;;;;;;;;5113912;28;20073;-75
2023/04/12 13:31:22;;;;;;;22.27;3.50;;;;;;;;;;5114018;28;20024;-72
2023/04/12 13:33:48;;;;;;;28.08;3.95;;;;;;;;;;5114114;28;20503;-73
2023/04/12 13:36:14;;;;;;;22.73;3.70;;;;;;;;;;5112509;28;20483;-73
2023/04/12 13:38:40;;;;;;;30.27;4.65;;;;;;;;;;5114107;28;20027;-75
2023/04/12 13:41:06;;;;;;;17.90;2.80;;;;;;;;;;5113703;28;20028;-74
2023/04/12 13:43:32;;;;;;;20.98;3.75;;;;;;;;;;5113957;27;20130;-74
2023/04/12 13:45:58;;;;;;;18.63;4.28;;;;;;;;;;5113415;28;20039;-75
2023/04/12 13:48:25;;;;;;;19.25;3.97;;;;;;;;;;5113675;28;20031;-73
2023/04/12 13:50:51;;;;;;;25.05;3.13;;;;;;;;;;5113718;28;20023;-75
2023/04/12 13:53:17;;;;;;;16.00;3.05;;;;;;;;;;5113423;28;20157;-77
2023/04/12 13:55:45;;;;;;;26.17;3.95;;;;;;;;;;5113351;28;20039;-75
2023/04/12 13:58:11;;;;;;;18.13;3.72;;;;;;;;;;5113413;28;20016;-76
2023/04/12 14:00:37;;;;;;;20.88;4.13;;;;;;;;;;5113254;28;20023;-76
2023/04/12 14:03:03;;;;;;;20.35;3.17;;;;;;;;;;5113446;28;20023;-77
2023/04/12 14:05:29;;;;;;;13.10;3.05;;;;;;;;;;5113272;28;20035;-74
2023/04/12 14:07:55;;;;;;;18.63;3.22;;;;;;;;;;5112133;28;20231;-75
2023/04/12 14:10:21;;;;;;;17.33;3.25;;;;;;;;;;5113029;28;20154;-77
2023/04/12 14:12:47;;;;;;;19.98;2.95;;;;;;;;;;5113355;28;20027;-76
2023/04/12 14:15:13;;;;;;;17.80;3.92;;;;;;;;;;5113066;28;20059;-77
2023/04/12 14:17:39;;;;;;;17.70;3.72;;;;;;;;;;5113385;28;20541;-75